^^
Saratoga-Weather Station Historical Data
Daily Summary for February 21, 2021 Units:  English    Metric   Both
Daily Weekly Monthly Yearly Custom
  High: Low: Average:
Temperature: 65.7 °F 36.1 °F 48 °F
Dew Point: 45.5 °F 34.9 °F 39.4 °F
Humidity: 97% 37% 76%
Wind Speed: 8.1mph 0mph 0.9mph
Wind Gust: 12mph - -
Wind- - SE
Pressure: 30 in 29.9 in -
Precipitation: 0 in    
Historical Graphs
 
 
Tabular Data for February 21, 2021
Time Temperature Dew Point Pressure Wind Wind Speed Wind Gust Humidity Rainfall Rate (Hourly) solar
00:01 41.5 °F 39.7 °F 30 in Calm     93% 0 in 0 W/m2
00:06 41.5 °F 39.7 °F 30 in Calm     93% 0 in 0 W/m2
00:11 41.5 °F 39.7 °F 30 in Calm     93% 0 in 0 W/m2
00:16 41.5 °F 39.7 °F 30 in Calm     93% 0 in 0 W/m2
00:21 41.4 °F 39.6 °F 30 in Calm     93% 0 in 0 W/m2
00:37 41.2 °F 39.4 °F 30 in Calm     93% 0 in 0 W/m2
00:42 41 °F 39.2 °F 30 in Calm     93% 0 in 0 W/m2
00:47 41 °F 39.4 °F 30 in Calm     94% 0 in 0 W/m2
00:52 41 °F 39.4 °F 30 in Calm   1 mph 94% 0 in 0 W/m2
00:57 40.8 °F 39.2 °F 30 in Calm     94% 0 in 0 W/m2
01:02 40.8 °F 39 °F 30 in Calm     93% 0 in 0 W/m2
01:07 40.6 °F 38.8 °F 30 in Calm     93% 0 in 0 W/m2
01:12 40.5 °F 38.7 °F 30 in Calm     93% 0 in 0 W/m2
01:17 40.5 °F 38.8 °F 30 in Calm     94% 0 in 0 W/m2
01:22 40.6 °F 39 °F 30 in Calm     94% 0 in 0 W/m2
01:27 40.8 °F 39.2 °F 30 in Calm     94% 0 in 0 W/m2
01:32 40.6 °F 39 °F 30 in Calm     94% 0 in 0 W/m2
01:37 40.6 °F 39 °F 30 in Calm     94% 0 in 0 W/m2
01:42 40.5 °F 38.8 °F 30 in Calm     94% 0 in 0 W/m2
01:47 40.5 °F 38.8 °F 30 in Calm     94% 0 in 0 W/m2
01:52 40.3 °F 38.7 °F 30 in Calm     94% 0 in 0 W/m2
02:09 39.9 °F 38.3 °F 30 in Calm     94% 0 in 0 W/m2
02:14 39.9 °F 38.3 °F 30 in Calm     94% 0 in 0 W/m2
02:19 39.7 °F 38.1 °F 30 in Calm     94% 0 in 0 W/m2
02:24 39.7 °F 38.1 °F 30 in Calm     94% 0 in 0 W/m2
02:29 39.6 °F 37.9 °F 30 in Calm     94% 0 in 0 W/m2
02:49 39.7 °F 38.1 °F 30 in Calm     94% 0 in 0 W/m2
02:54 39.6 °F 37.9 °F 30 in Calm     94% 0 in 0 W/m2
02:59 39.6 °F 37.9 °F 30 in Calm     94% 0 in 0 W/m2
03:04 39.4 °F 37.8 °F 30 in Calm     94% 0 in 0 W/m2
03:09 39.2 °F 37.6 °F 30 in Calm     94% 0 in 0 W/m2
03:14 39.2 °F 37.6 °F 30 in Calm     94% 0 in 0 W/m2
03:19 39.2 °F 37.6 °F 30 in Calm     94% 0 in 0 W/m2
03:24 39.4 °F 38.1 °F 30 in Calm     95% 0 in 0 W/m2
03:29 39.6 °F 38.3 °F 30 in Calm     95% 0 in 0 W/m2
03:34 39.6 °F 38.3 °F 30 in Calm     95% 0 in 0 W/m2
03:54 39 °F 37.4 °F 30 in Calm     94% 0 in 0 W/m2
03:59 38.8 °F 37.6 °F 30 in Calm     95% 0 in 0 W/m2
04:04 38.8 °F 37.6 °F 30 in Calm     95% 0 in 0 W/m2
04:09 38.7 °F 37 °F 30 in Calm     94% 0 in 0 W/m2
04:14 38.7 °F 37 °F 30 in Calm     94% 0 in 0 W/m2
04:19 38.7 °F 37.4 °F 30 in Calm     95% 0 in 0 W/m2
04:24 38.5 °F 37.2 °F 30 in Calm     95% 0 in 0 W/m2
04:29 38.3 °F 37 °F 30 in Calm     95% 0 in 0 W/m2
04:34 38.5 °F 37.2 °F 30 in Calm     95% 0 in 0 W/m2
04:39 38.5 °F 37.2 °F 30 in Calm     95% 0 in 0 W/m2
04:44 38.7 °F 37.4 °F 30 in Calm     95% 0 in 0 W/m2
04:49 38.5 °F 37.2 °F 30 in Calm     95% 0 in 0 W/m2
04:54 38.3 °F 37 °F 30 in Calm     95% 0 in 0 W/m2
04:59 38.1 °F 36.9 °F 30 in Calm     95% 0 in 0 W/m2
05:04 37.9 °F 36.7 °F 30 in Calm     95% 0 in 0 W/m2
05:09 37.8 °F 36.5 °F 30 in Calm     95% 0 in 0 W/m2
05:14 37.8 °F 36.5 °F 30 in Calm     95% 0 in 0 W/m2
05:19 37.6 °F 36.3 °F 30 in Calm     95% 0 in 0 W/m2
05:24 37.6 °F 36.3 °F 30 in Calm     95% 0 in 0 W/m2
05:29 37.6 °F 36.3 °F 30 in Calm     95% 0 in 0 W/m2
05:34 37.4 °F 36.1 °F 30 in Calm     95% 0 in 0 W/m2
05:39 37.4 °F 36.1 °F 30 in Calm     95% 0 in 0 W/m2
05:57 37.4 °F 36.1 °F 30 in Calm     95% 0 in 0 W/m2
06:02 37.4 °F 36.1 °F 30 in Calm     95% 0 in 0 W/m2
06:07 37.2 °F 36 °F 30 in Calm     95% 0 in 0 W/m2
06:12 37.2 °F 36 °F 30 in Calm     95% 0 in 0 W/m2
06:17 37.2 °F 36 °F 30 in Calm     95% 0 in 0 W/m2
06:22 37 °F 35.8 °F 30 in Calm     95% 0 in 0 W/m2
06:27 37 °F 35.8 °F 30 in Calm     95% 0 in 0 W/m2
06:32 37 °F 35.8 °F 30 in Calm     95% 0 in 0 W/m2
06:37 36.9 °F 35.6 °F 30 in Calm     95% 0 in 0 W/m2
06:55 36.3 °F 35.1 °F 30 in Calm     95% 0 in 0 W/m2
07:00 36.3 °F 35.1 °F 30 in Calm     95% 0 in 0 W/m2
07:05 36.3 °F 35.1 °F 30 in Calm     95% 0 in 0 W/m2
07:10 36.1 °F 34.9 °F 30 in Calm     95% 0 in 0 W/m2
07:15 36.1 °F 34.9 °F 30 in Calm     95% 0 in 0 W/m2
07:20 36.1 °F 35.1 °F 30 in Calm     96% 0 in 0 W/m2
07:25 36.1 °F 35.1 °F 30 in Calm     96% 0 in 0 W/m2
07:30 36.3 °F 35.2 °F 30 in Calm     96% 0 in 0 W/m2
07:35 36.3 °F 35.2 °F 30 in Calm     96% 0 in 5 W/m2
07:40 36.3 °F 35.2 °F 30 in Calm     96% 0 in 5 W/m2
07:45 36.5 °F 35.4 °F 30 in Calm     96% 0 in 9 W/m2
07:50 36.7 °F 35.6 °F 30 in Calm     96% 0 in 11 W/m2
07:56 36.7 °F 35.6 °F 30 in Calm     96% 0 in 12 W/m2
08:01 36.7 °F 35.6 °F 30 in Calm     96% 0 in 16 W/m2
08:06 36.5 °F 35.4 °F 30 in Calm     96% 0 in 18 W/m2
08:11 36.7 °F 35.6 °F 30 in Calm     96% 0 in 18 W/m2
08:16 36.7 °F 35.6 °F 30 in Calm     96% 0 in 21 W/m2
08:21 36.7 °F 35.6 °F 30 in Calm     96% 0 in 21 W/m2
08:26 36.9 °F 35.8 °F 30 in Calm     96% 0 in 25 W/m2
08:31 37 °F 36 °F 30 in Calm     96% 0 in 26 W/m2
08:36 37.6 °F 36.5 °F 30 in Calm     96% 0 in 39 W/m2
08:41 37.9 °F 37.2 °F 30 in Calm     97% 0 in 77 W/m2
08:46 38.5 °F 37.8 °F 30 in Calm     97% 0 in 88 W/m2
08:51 38.8 °F 38.1 °F 30 in Calm     97% 0 in 105 W/m2
08:56 39.4 °F 38.7 °F 30 in Calm     97% 0 in 70 W/m2
09:01 39.6 °F 38.8 °F 30 in Calm     97% 0 in 62 W/m2
09:06 39.7 °F 39 °F 30 in Calm     97% 0 in 49 W/m2
09:11 39.9 °F 39.2 °F 30 in Calm     97% 0 in 42 W/m2
09:16 40.3 °F 39.6 °F 30 in Calm     97% 0 in 84 W/m2
09:21 40.6 °F 39.9 °F 30 in Calm     97% 0 in 125 W/m2
09:26 40.8 °F 40.1 °F 30 in Calm     97% 0 in 209 W/m2
09:31 41.4 °F 40.6 °F 30 in Calm     97% 0 in 225 W/m2
09:36 41.9 °F 41.2 °F 30 in Calm     97% 0 in 237 W/m2
09:41 42.6 °F 41.9 °F 30 in Calm     97% 0 in 250 W/m2
09:46 43.3 °F 42.6 °F 30 in ESE 0.9 mph 1 mph 97% 0 in 236 W/m2
09:51 44.2 °F 43.5 °F 30 in East 2 mph 2 mph 97% 0 in 274 W/m2
09:56 44.8 °F 44.1 °F 30 in East 0.9 mph 2 mph 97% 0 in 267 W/m2
10:01 45.7 °F 44.6 °F 30 in Calm   1 mph 96% 0 in 285 W/m2
10:06 46.4 °F 44.4 °F 30 in ESE 2 mph 2 mph 93% 0 in 308 W/m2
10:11 47.3 °F 44.8 °F 30 in East 0.9 mph 1 mph 91% 0 in 316 W/m2
10:16 48 °F 45 °F 30 in East 0.9 mph 1 mph 89% 0 in 327 W/m2
10:21 48.9 °F 45 °F 30 in ENE 0.9 mph 4 mph 86% 0 in 341 W/m2
10:26 49.5 °F 44.6 °F 30 in ENE 2 mph 3 mph 83% 0 in 341 W/m2
10:46 50.4 °F 44.1 °F 30 in Calm   2 mph 79% 0 in 146 W/m2
10:51 50.5 °F 44.2 °F 30 in NNE 0.9 mph 3 mph 79% 0 in 134 W/m2
10:56 51.1 °F 44.4 °F 30 in NE 0.9 mph 2 mph 78% 0 in 199 W/m2
11:01 51.4 °F 44.4 °F 30 in ENE 6 mph 6 mph 77% 0 in 325 W/m2
11:06 52.2 °F 44.4 °F 30 in ENE 0.9 mph 4 mph 75% 0 in 424 W/m2
11:11 52.9 °F 45.1 °F 30 in East 0.9 mph 6 mph 75% 0 in 417 W/m2
11:16 53.4 °F 45 °F 30 in Calm   2 mph 73% 0 in 439 W/m2
11:21 54 °F 44.8 °F 30 in ENE 2 mph 3 mph 71% 0 in 316 W/m2
11:42 55.6 °F 45.1 °F 30 in Calm   2 mph 68% 0 in 120 W/m2
11:47 56.1 °F 45 °F 30 in ENE 4 mph 5 mph 66% 0 in 221 W/m2
11:52 56.5 °F 44.8 °F 30 in East 2.9 mph 3 mph 65% 0 in 207 W/m2
11:57 56.8 °F 44.8 °F 30 in ENE 0.9 mph 4 mph 64% 0 in 420 W/m2
12:02 57 °F 45 °F 30 in ESE 0.9 mph 6 mph 64% 0 in 396 W/m2
12:07 57.6 °F 45.1 °F 30 in ENE 2 mph 3 mph 63% 0 in 318 W/m2
12:12 58.1 °F 45.1 °F 30 in East 4 mph 5 mph 62% 0 in 441 W/m2
12:17 58.5 °F 45.5 °F 30 in Calm   2 mph 62% 0 in 473 W/m2
12:22 59 °F 45.1 °F 30 in East 4 mph 4 mph 60% 0 in 506 W/m2
12:27 59.7 °F 45 °F 30 in East 2.9 mph 6 mph 58% 0 in 508 W/m2
12:32 60.3 °F 45 °F 30 in East 2.9 mph 6 mph 57% 0 in 366 W/m2
12:37 60.6 °F 44.8 °F 30 in Calm   1 mph 56% 0 in 236 W/m2
12:42 60.6 °F 44.8 °F 30 in NNW 0.9 mph 2 mph 56% 0 in 229 W/m2
12:47 61.2 °F 43.3 °F 30 in NNW 2.9 mph 6 mph 52% 0 in 281 W/m2
12:52 61.7 °F 42.3 °F 30 in NW 2 mph 3 mph 49% 0 in 251 W/m2
12:57 62.2 °F 42.3 °F 30 in NE 4 mph 11 mph 48% 0 in 325 W/m2
13:02 62.8 °F 40.5 °F 30 in NE 2.9 mph 9 mph 44% 0 in 327 W/m2
13:07 63 °F 40.1 °F 30 in NNW 4.9 mph 11 mph 43% 0 in 455 W/m2
13:12 63 °F 40.1 °F 30 in WNW 4 mph 6 mph 43% 0 in 346 W/m2
13:17 63.1 °F 39 °F 30 in NE 4.9 mph 12 mph 41% 0 in 294 W/m2
13:22 63.1 °F 39 °F 30 in WNW 4.9 mph 9 mph 41% 0 in 162 W/m2
13:27 63.3 °F 39.2 °F 30 in West 2.9 mph 8 mph 41% 0 in 111 W/m2
13:32 63.7 °F 38.8 °F 30 in North 4.9 mph 7 mph 40% 0 in 165 W/m2
13:37 63.9 °F 39 °F 30 in North 2 mph 5 mph 40% 0 in 121 W/m2
13:42 63.9 °F 39 °F 30 in NNW 0.9 mph 5 mph 40% 0 in 169 W/m2
13:47 64 °F 39.2 °F 30 in WNW 4.9 mph 6 mph 40% 0 in 128 W/m2
13:52 64.2 °F 38.1 °F 30 in NNW 2 mph 9 mph 38% 0 in 287 W/m2
13:57 64.6 °F 38.5 °F 30 in NE 0.9 mph 9 mph 38% 0 in 151 W/m2
14:02 64.9 °F 38.7 °F 30 in East 4 mph 6 mph 38% 0 in 63 W/m2
14:07 65.1 °F 38.8 °F 30 in NNW 0.9 mph 4 mph 38% 0 in 206 W/m2
14:12 65.5 °F 38.5 °F 29.9 in WSW 2 mph 4 mph 37% 0 in 151 W/m2
14:17 65.5 °F 38.5 °F 29.9 in SSE 2 mph 4 mph 37% 0 in 178 W/m2
14:22 65.7 °F 39.4 °F 30 in East 2 mph 10 mph 38% 0 in 272 W/m2
14:27 65.7 °F 39.4 °F 29.9 in WNW 0.9 mph 7 mph 38% 0 in 199 W/m2
14:32 65.7 °F 40.1 °F 30 in NE 2 mph 10 mph 39% 0 in 190 W/m2
14:37 65.7 °F 41.9 °F 29.9 in East 2.9 mph 4 mph 42% 0 in 116 W/m2
14:42 65.5 °F 41.7 °F 29.9 in East 8.1 mph 8 mph 42% 0 in 137 W/m2
14:47 65.1 °F 42.6 °F 29.9 in ENE 2 mph 6 mph 44% 0 in 132 W/m2
14:52 64.9 °F 41.9 °F 29.9 in ENE 6 mph 8 mph 43% 0 in 113 W/m2
14:57 64.9 °F 41.4 °F 29.9 in ENE 4.9 mph 8 mph 42% 0 in 69 W/m2
15:02 64.9 °F 41.4 °F 29.9 in SE 2.9 mph 10 mph 42% 0 in 76 W/m2
15:07 64.8 °F 41.7 °F 29.9 in ESE 2.9 mph 10 mph 43% 0 in 102 W/m2
15:12 64.6 °F 42.3 °F 29.9 in SE 2.9 mph 9 mph 44% 0 in 142 W/m2
15:17 64.6 °F 42.3 °F 29.9 in SE 2.9 mph 10 mph 44% 0 in 105 W/m2
15:22 64.2 °F 41.2 °F 29.9 in South 2.9 mph 8 mph 43% 0 in 74 W/m2
15:27 64 °F 41.2 °F 29.9 in East 2 mph 7 mph 43% 0 in 72 W/m2
15:32 63.9 °F 41.5 °F 29.9 in SE 4.9 mph 8 mph 44% 0 in 62 W/m2
15:37 63.7 °F 41.4 °F 29.9 in SSE 2.9 mph 6 mph 44% 0 in 88 W/m2
15:42 63.7 °F 41.4 °F 29.9 in SE 2.9 mph 4 mph 44% 0 in 72 W/m2
15:47 63.7 °F 41.4 °F 29.9 in ESE 6 mph 8 mph 44% 0 in 76 W/m2
15:52 63.7 °F 41.4 °F 29.9 in ESE 2 mph 6 mph 44% 0 in 84 W/m2
15:58 63.7 °F 40.8 °F 29.9 in ESE 4 mph 8 mph 43% 0 in 84 W/m2
16:03 63.7 °F 41.4 °F 29.9 in East 4.9 mph 5 mph 44% 0 in 72 W/m2
16:08 63.7 °F 42.4 °F 29.9 in ESE 2.9 mph 3 mph 46% 0 in 60 W/m2
16:13 63.1 °F 42.6 °F 29.9 in ESE 2.9 mph 4 mph 47% 0 in 83 W/m2
16:18 62.8 °F 41.7 °F 29.9 in ESE 8.1 mph 9 mph 46% 0 in 74 W/m2
16:23 62.4 °F 41.9 °F 29.9 in ENE 0.9 mph 4 mph 47% 0 in 151 W/m2
16:28 62.1 °F 42.6 °F 29.9 in ENE 4 mph 7 mph 49% 0 in 98 W/m2
16:33 62.2 °F 41.2 °F 29.9 in ESE 8.1 mph 8 mph 46% 0 in 32 W/m2
16:38 62.2 °F 41.2 °F 29.9 in ESE 4 mph 4 mph 46% 0 in 28 W/m2
16:43 62.2 °F 41.7 °F 29.9 in ESE 0.9 mph 3 mph 47% 0 in 25 W/m2
16:48 61.9 °F 42.4 °F 29.9 in Calm   1 mph 49% 0 in 23 W/m2
16:53 61.2 °F 40.8 °F 29.9 in East 0.9 mph 6 mph 47% 0 in 23 W/m2
16:58 60.4 °F 40.6 °F 29.9 in East 0.9 mph 6 mph 48% 0 in 21 W/m2
17:03 60.3 °F 41.5 °F 29.9 in East 0.9 mph 3 mph 50% 0 in 21 W/m2
17:08 59.9 °F 40.6 °F 29.9 in Calm   6 mph 49% 0 in 21 W/m2
17:13 59.5 °F 41.4 °F 29.9 in East 4 mph 4 mph 51% 0 in 19 W/m2
17:18 58.8 °F 40.3 °F 29.9 in ENE 2 mph 4 mph 50% 0 in 19 W/m2
17:23 58.8 °F 40.8 °F 29.9 in ENE 2 mph 7 mph 51% 0 in 18 W/m2
17:28 58.6 °F 42.1 °F 29.9 in ESE 0.9 mph 1 mph 54% 0 in 18 W/m2
17:33 57.7 °F 41.7 °F 29.9 in Calm   7 mph 55% 0 in 16 W/m2
17:38 56.8 °F 41.7 °F 29.9 in Calm   1 mph 57% 0 in 14 W/m2
17:43 56.1 °F 41.9 °F 29.9 in Calm   1 mph 59% 0 in 12 W/m2
17:48 55.2 °F 41.5 °F 29.9 in Calm     60% 0 in 12 W/m2
17:53 54.7 °F 41.5 °F 29.9 in Calm   1 mph 61% 0 in 11 W/m2
17:58 54 °F 41.2 °F 29.9 in Calm     62% 0 in 7 W/m2
18:03 53.4 °F 41.2 °F 29.9 in Calm     63% 0 in 5 W/m2
18:08 53.1 °F 41.2 °F 29.9 in Calm     64% 0 in 0 W/m2
18:13 52.7 °F 41.2 °F 29.9 in Calm   2 mph 65% 0 in 0 W/m2
18:18 52.2 °F 40.8 °F 29.9 in Calm   1 mph 65% 0 in 0 W/m2
18:23 51.8 °F 40.8 °F 29.9 in Calm   1 mph 66% 0 in 0 W/m2
18:28 51.3 °F 40.6 °F 30 in Calm   1 mph 67% 0 in 0 W/m2
18:33 50.7 °F 40.1 °F 30 in Calm   1 mph 67% 0 in 0 W/m2
18:38 50.4 °F 40.3 °F 30 in Calm     68% 0 in 0 W/m2
18:43 49.8 °F 40.1 °F 30 in Calm   1 mph 69% 0 in 0 W/m2
18:48 49.6 °F 39.9 °F 30 in Calm     69% 0 in 0 W/m2
18:53 49.5 °F 40.1 °F 30 in Calm   1 mph 70% 0 in 0 W/m2
18:58 49.3 °F 40.3 °F 30 in Calm   1 mph 71% 0 in 0 W/m2
19:03 48.9 °F 39.9 °F 30 in Calm   1 mph 71% 0 in 0 W/m2
19:08 48.7 °F 40.1 °F 30 in Calm     72% 0 in 0 W/m2
19:13 48.6 °F 39.9 °F 30 in Calm   1 mph 72% 0 in 0 W/m2
19:18 48.4 °F 39.7 °F 30 in Calm   1 mph 72% 0 in 0 W/m2
19:23 48.4 °F 39.7 °F 30 in ESE 0.9 mph 2 mph 72% 0 in 0 W/m2
19:28 48 °F 39.4 °F 30 in Calm     72% 0 in 0 W/m2
19:33 48 °F 39.4 °F 30 in Calm   2 mph 72% 0 in 0 W/m2
19:38 48 °F 39.4 °F 30 in Calm   2 mph 72% 0 in 0 W/m2
19:43 47.8 °F 39.2 °F 30 in Calm     72% 0 in 0 W/m2
19:48 47.8 °F 39.2 °F 30 in ESE 0.9 mph 2 mph 72% 0 in 0 W/m2
19:53 47.7 °F 39 °F 30 in Calm   1 mph 72% 0 in 0 W/m2
19:58 47.7 °F 39 °F 30 in Calm   2 mph 72% 0 in 0 W/m2
20:03 47.5 °F 38.8 °F 30 in Calm   1 mph 72% 0 in 0 W/m2
20:08 47.1 °F 38.5 °F 30 in Calm     72% 0 in 0 W/m2
20:13 46.9 °F 38.3 °F 30 in Calm     72% 0 in 0 W/m2
20:18 46.8 °F 38.5 °F 30 in Calm     73% 0 in 0 W/m2
20:23 46.4 °F 38.3 °F 30 in Calm     73% 0 in 0 W/m2
20:28 46.2 °F 38.5 °F 30 in Calm     74% 0 in 0 W/m2
20:33 46.2 °F 38.5 °F 30 in Calm     74% 0 in 0 W/m2
20:38 46.2 °F 38.5 °F 30 in ESE 0.9 mph 2 mph 74% 0 in 0 W/m2
20:43 46 °F 38.3 °F 30 in Calm   1 mph 74% 0 in 0 W/m2
20:48 46 °F 38.3 °F 30 in Calm   1 mph 74% 0 in 0 W/m2
20:53 45.9 °F 38.3 °F 30 in ESE 0.9 mph 1 mph 75% 0 in 0 W/m2
20:58 45.7 °F 38.3 °F 30 in Calm     75% 0 in 0 W/m2
21:03 45.3 °F 37.9 °F 30 in Calm     75% 0 in 0 W/m2
21:08 45.3 °F 38.1 °F 30 in Calm     76% 0 in 0 W/m2
21:13 45.1 °F 37.9 °F 30 in Calm     76% 0 in 0 W/m2
21:18 45 °F 37.9 °F 30 in Calm     76% 0 in 0 W/m2
21:23 44.8 °F 37.8 °F 30 in Calm     76% 0 in 0 W/m2
21:28 44.8 °F 37.8 °F 30 in Calm     76% 0 in 0 W/m2
21:33 44.6 °F 37.8 °F 30 in Calm     77% 0 in 0 W/m2
21:38 44.4 °F 37.6 °F 30 in Calm     77% 0 in 0 W/m2
21:43 44.4 °F 37.9 °F 30 in Calm     78% 0 in 0 W/m2
21:48 44.2 °F 37.8 °F 30 in Calm     78% 0 in 0 W/m2
21:53 44.1 °F 37.6 °F 30 in Calm     78% 0 in 0 W/m2
21:58 43.9 °F 37.4 °F 30 in Calm     78% 0 in 0 W/m2
22:03 43.9 °F 37.8 °F 30 in Calm     79% 0 in 0 W/m2
22:08 43.5 °F 37.4 °F 30 in Calm     79% 0 in 0 W/m2
22:13 43.5 °F 37.4 °F 30 in Calm     79% 0 in 0 W/m2
22:18 43.3 °F 37.6 °F 30 in Calm     80% 0 in 0 W/m2
22:23 43.2 °F 37.4 °F 30 in Calm     80% 0 in 0 W/m2
22:28 43.2 °F 37.8 °F 30 in Calm   2 mph 81% 0 in 0 W/m2
22:33 43.2 °F 37.8 °F 30 in ESE 0.9 mph 1 mph 81% 0 in 0 W/m2
22:38 43.2 °F 37.8 °F 30 in Calm   2 mph 81% 0 in 0 W/m2
22:58 43 °F 37.9 °F 30 in Calm   1 mph 82% 0 in 0 W/m2
23:03 43 °F 37.6 °F 30 in Calm     81% 0 in 0 W/m2
23:08 43 °F 37.6 °F 30 in Calm     81% 0 in 0 W/m2
23:13 43 °F 37.6 °F 30 in Calm     81% 0 in 0 W/m2
23:18 42.6 °F 37.2 °F 30 in Calm     81% 0 in 0 W/m2
23:23 42.4 °F 37 °F 30 in Calm     81% 0 in 0 W/m2
23:28 42.3 °F 37.2 °F 30 in Calm     82% 0 in 0 W/m2
23:33 42.1 °F 37.2 °F 30 in Calm     83% 0 in 0 W/m2
23:38 41.7 °F 36.9 °F 30 in Calm     83% 0 in 0 W/m2
23:43 41.7 °F 37.2 °F 30 in Calm     84% 0 in 0 W/m2
23:48 41.5 °F 37 °F 30 in Calm     84% 0 in 0 W/m2
23:53 41.4 °F 36.9 °F 30 in Calm     84% 0 in 0 W/m2
23:58 41.2 °F 36.7 °F 30 in Calm     84% 0 in 0 W/m2
Juneau County Weather
Compliments of Weather Underground - 4 mb